createdAt,value
2018-06-22T00:01:03.273Z,55.84
2018-06-22T00:03:32.464Z,56.55
2018-06-22T00:06:01.094Z,56.41
2018-06-22T00:08:36.618Z,56.32
2018-06-22T00:11:05.288Z,57.02
2018-06-22T00:13:34.311Z,57.91
2018-06-22T00:16:04.352Z,57.94
2018-06-22T00:18:33.211Z,58.35
2018-06-22T00:21:02.143Z,58.83
2018-06-22T00:23:30.933Z,59.20
2018-06-22T00:26:00.035Z,59.91
2018-06-22T00:28:28.947Z,59.79
2018-06-22T00:30:58.033Z,64.68
2018-06-22T00:33:26.785Z,61.22
2018-06-22T00:35:56.150Z,61.48
2018-06-22T00:38:26.401Z,62.56
2018-06-22T00:40:55.320Z,61.83
2018-06-22T00:43:24.707Z,62.27
2018-06-22T00:45:53.646Z,63.54
2018-06-22T00:48:22.643Z,65.32
2018-06-22T00:50:51.777Z,66.78
2018-06-22T00:53:31.875Z,66.56
2018-06-22T00:56:00.792Z,68.12
2018-06-22T00:58:29.995Z,68.54
2018-06-22T01:00:59.031Z,70.42
2018-06-22T01:03:28.019Z,70.36
2018-06-22T01:05:56.929Z,70.89
2018-06-22T01:08:25.866Z,70.91
2018-06-22T01:10:54.750Z,69.70
2018-06-22T01:13:24.435Z,71.87
2018-06-22T01:15:53.044Z,70.48
2018-06-22T01:18:21.718Z,70.21
2018-06-22T01:20:51.235Z,70.68
2018-06-22T01:23:20.874Z,70.99
2018-06-22T01:25:49.993Z,71.79
2018-06-22T01:28:18.819Z,71.37
2018-06-22T01:30:47.634Z,72.03
2018-06-22T01:33:16.559Z,72.98
2018-06-22T01:35:45.720Z,72.48
2018-06-22T01:38:14.891Z,73.97
2018-06-22T01:40:44.816Z,74.39
2018-06-22T01:43:13.766Z,74.81
2018-06-22T01:45:43.342Z,74.64
2018-06-22T01:48:13.327Z,76.43
2018-06-22T01:50:42.252Z,76.92
2018-06-22T01:53:10.972Z,77.09
2018-06-22T01:55:39.782Z,78.21
2018-06-22T01:58:08.691Z,78.91
2018-06-22T02:00:37.605Z,79.32
2018-06-22T02:03:06.439Z,78.68
2018-06-22T02:05:35.322Z,80.40
2018-06-22T02:08:04.108Z,79.91
2018-06-22T02:10:32.890Z,80.91
2018-06-22T02:13:01.552Z,82.31
2018-06-22T02:15:30.349Z,82.38
2018-06-22T02:17:59.207Z,83.26
2018-06-22T02:20:27.951Z,84.17
2018-06-22T02:22:56.614Z,84.98
2018-06-22T02:25:25.266Z,84.95
2018-06-22T02:27:53.982Z,84.73
2018-06-22T02:30:22.685Z,85.66
2018-06-22T02:32:51.370Z,87.47
2018-06-22T02:35:20.036Z,86.30
2018-06-22T02:37:48.770Z,86.12
2018-06-22T02:40:17.511Z,87.11
2018-06-22T02:42:46.226Z,86.59
2018-06-22T02:45:14.989Z,86.17
2018-06-22T02:47:43.736Z,86.12
2018-06-22T02:50:12.401Z,86.62
2018-06-22T02:52:41.054Z,86.40
2018-06-22T02:55:09.985Z,86.83
2018-06-22T02:57:38.767Z,86.28
2018-06-22T03:00:07.553Z,87.26
2018-06-22T03:02:36.252Z,87.54
2018-06-22T03:05:05.053Z,86.78
2018-06-22T03:07:33.965Z,87.43
2018-06-22T03:10:04.686Z,87.52
2018-06-22T03:12:33.822Z,87.14
2018-06-22T03:15:03.202Z,87.32
2018-06-22T03:17:31.994Z,88.06
2018-06-22T03:20:01.118Z,100.00
2018-06-22T03:22:30.073Z,97.85
2018-06-22T03:24:59.131Z,95.36
2018-06-22T03:27:27.864Z,95.82
2018-06-22T03:29:56.752Z,89.24
2018-06-22T03:32:25.452Z,92.10
2018-06-22T03:34:54.134Z,93.91
2018-06-22T03:37:22.856Z,89.83
2018-06-22T03:39:51.614Z,85.71
2018-06-22T03:42:20.266Z,84.66
2018-06-22T03:44:49.173Z,86.12
2018-06-22T03:47:17.824Z,87.81
2018-06-22T03:49:46.570Z,87.10
2018-06-22T03:52:15.428Z,85.44
2018-06-22T03:54:44.360Z,86.68
2018-06-22T03:57:13.161Z,85.50
2018-06-22T03:59:41.988Z,81.95
2018-06-22T04:02:10.745Z,88.81
2018-06-22T04:04:39.448Z,91.32
2018-06-22T04:07:08.322Z,86.61
2018-06-22T04:09:37.304Z,86.17
2018-06-22T04:12:06.128Z,80.06
2018-06-22T04:14:34.965Z,87.29
2018-06-22T04:17:03.664Z,85.77
2018-06-22T04:19:32.422Z,86.32
2018-06-22T04:22:01.150Z,91.05
2018-06-22T04:24:30.064Z,79.75
2018-06-22T04:26:58.708Z,77.49
2018-06-22T04:29:27.600Z,80.10
2018-06-22T04:31:57.068Z,80.61
2018-06-22T04:34:25.865Z,82.20
2018-06-22T04:36:54.503Z,84.45
2018-06-22T04:39:23.202Z,87.63
2018-06-22T04:41:51.992Z,86.45
2018-06-22T04:44:29.495Z,85.27
2018-06-22T04:46:58.587Z,83.55
2018-06-22T04:49:27.470Z,86.58
2018-06-22T04:51:56.291Z,83.46
2018-06-22T04:54:25.459Z,84.64
2018-06-22T04:56:54.708Z,83.65
2018-06-22T04:59:23.848Z,83.49
2018-06-22T05:01:55.752Z,85.82
2018-06-22T05:04:24.588Z,87.85
2018-06-22T05:06:53.533Z,90.31
2018-06-22T05:09:22.505Z,89.42
2018-06-22T05:11:51.320Z,82.99
2018-06-22T05:14:20.660Z,90.28
2018-06-22T05:16:50.123Z,81.10
2018-06-22T05:19:19.347Z,72.72
2018-06-22T05:21:48.357Z,73.83
2018-06-22T05:24:18.499Z,73.64
2018-06-22T05:26:47.321Z,77.73
2018-06-22T05:29:16.860Z,82.92
2018-06-22T05:31:45.951Z,73.53
2018-06-22T05:34:14.935Z,72.16
2018-06-22T05:36:44.405Z,72.06
2018-06-22T05:39:13.388Z,73.31
2018-06-22T05:41:42.379Z,71.98
2018-06-22T05:44:11.615Z,71.99
2018-06-22T05:46:40.543Z,71.72
2018-06-22T05:49:09.600Z,71.44
2018-06-22T05:51:38.847Z,70.65
2018-06-22T05:54:07.813Z,70.69
2018-06-22T05:56:36.855Z,70.63
2018-06-22T05:59:06.238Z,69.98
2018-06-22T06:01:35.233Z,68.43
2018-06-22T06:04:04.178Z,69.45
2018-06-22T06:06:33.020Z,69.83
2018-06-22T06:09:02.109Z,68.10
2018-06-22T06:11:31.755Z,66.11
2018-06-22T06:14:01.483Z,64.68
2018-06-22T06:16:30.766Z,65.80
2018-06-22T06:18:59.964Z,66.67
2018-06-22T06:21:29.982Z,68.00
2018-06-22T06:23:59.385Z,68.85
2018-06-22T06:26:28.171Z,66.49
2018-06-22T06:29:01.893Z,65.31
2018-06-22T06:31:30.864Z,62.87
2018-06-22T06:33:59.675Z,63.45
2018-06-22T06:36:29.971Z,62.81
2018-06-22T06:39:03.749Z,62.92
2018-06-22T06:41:32.690Z,62.89
2018-06-22T06:44:01.480Z,66.12
2018-06-22T06:46:31.092Z,60.55
2018-06-22T06:48:59.901Z,60.05
2018-06-22T06:51:29.020Z,59.78
2018-06-22T06:53:58.353Z,56.99
2018-06-22T06:56:27.098Z,58.56
2018-06-22T06:58:55.668Z,58.40
2018-06-22T07:01:24.411Z,59.01
2018-06-22T07:03:53.136Z,58.34
2018-06-22T07:06:22.068Z,56.19
2018-06-22T07:08:50.913Z,55.89
2018-06-22T07:11:19.625Z,55.45
2018-06-22T07:13:48.594Z,57.02
2018-06-22T07:16:17.659Z,57.62
2018-06-22T07:18:46.680Z,57.31
2018-06-22T07:21:15.861Z,63.50
2018-06-22T07:23:45.783Z,57.37
2018-06-22T07:26:14.627Z,55.78
2018-06-22T07:28:43.669Z,52.66
2018-06-22T07:31:13.021Z,52.78
2018-06-22T07:33:41.956Z,54.00
2018-06-22T07:36:11.415Z,54.86
2018-06-22T07:38:40.439Z,55.08
2018-06-22T07:41:09.610Z,54.73
2018-06-22T07:43:38.583Z,51.96
2018-06-22T07:46:07.451Z,51.57
2018-06-22T07:48:36.733Z,51.16
2018-06-22T07:51:05.600Z,50.13
2018-06-22T07:53:34.758Z,51.44
2018-06-22T07:56:03.697Z,49.48
2018-06-22T07:58:32.595Z,50.41
2018-06-22T08:01:01.595Z,49.48
2018-06-22T08:03:31.240Z,47.53
2018-06-22T08:06:00.442Z,47.20
2018-06-22T08:08:29.365Z,47.31
2018-06-22T08:10:58.189Z,47.53
2018-06-22T08:13:27.110Z,47.99
2018-06-22T08:15:56.941Z,48.11
2018-06-22T08:18:26.206Z,48.86
2018-06-22T08:20:55.943Z,48.97
2018-06-22T08:23:24.718Z,48.27
2018-06-22T08:25:53.601Z,47.54
2018-06-22T08:28:22.390Z,46.69
2018-06-22T08:30:52.562Z,47.50
2018-06-22T08:33:22.016Z,48.76
2018-06-22T08:35:51.410Z,47.81
2018-06-22T08:38:20.160Z,46.18
2018-06-22T08:40:49.355Z,45.71
2018-06-22T08:43:18.448Z,44.18
2018-06-22T08:45:48.085Z,44.34
2018-06-22T08:48:17.007Z,43.73
2018-06-22T08:50:46.083Z,41.58
2018-06-22T08:53:15.854Z,42.15
2018-06-22T08:55:45.625Z,42.28
2018-06-22T08:58:15.097Z,41.47
2018-06-22T09:00:44.007Z,43.66
2018-06-22T09:03:13.098Z,44.30
2018-06-22T09:05:42.525Z,45.22
2018-06-22T09:08:11.436Z,44.44
2018-06-22T09:10:40.625Z,44.44
2018-06-22T09:13:10.614Z,42.95
2018-06-22T09:15:39.667Z,42.33
2018-06-22T09:18:09.008Z,41.29
2018-06-22T09:20:37.899Z,40.07
2018-06-22T09:23:06.948Z,39.96
2018-06-22T09:25:36.198Z,40.80
2018-06-22T09:28:05.140Z,43.36
2018-06-22T09:30:34.242Z,43.86
2018-06-22T09:33:03.270Z,44.99
2018-06-22T09:35:32.655Z,44.38
2018-06-22T09:38:01.794Z,43.95
2018-06-22T09:40:32.006Z,41.75
2018-06-22T09:43:00.952Z,43.75
2018-06-22T09:45:31.604Z,43.87
2018-06-22T09:48:00.231Z,43.88
2018-06-22T09:50:29.128Z,45.91
2018-06-22T09:52:58.218Z,46.32
2018-06-22T09:55:27.595Z,45.51
2018-06-22T09:57:56.721Z,43.75
2018-06-22T10:00:25.650Z,44.20
2018-06-22T10:03:04.059Z,43.64
2018-06-22T10:05:39.302Z,44.03
2018-06-22T10:08:08.450Z,43.25
2018-06-22T10:10:37.700Z,42.89
2018-06-22T10:13:07.129Z,43.59
2018-06-22T10:15:36.183Z,42.26
2018-06-22T10:18:05.045Z,40.28
2018-06-22T10:20:34.326Z,40.09
2018-06-22T10:23:03.334Z,38.93
2018-06-22T10:25:33.785Z,40.61
2018-06-22T10:28:03.671Z,42.27
2018-06-22T10:30:33.230Z,42.24
2018-06-22T10:33:02.428Z,41.09
2018-06-22T10:35:31.977Z,42.27
2018-06-22T10:38:04.200Z,41.22
2018-06-22T10:40:34.039Z,41.35
2018-06-22T10:43:03.045Z,42.21
2018-06-22T10:45:32.686Z,42.15
2018-06-22T10:48:03.763Z,40.19
2018-06-22T10:50:32.852Z,40.18
2018-06-22T10:53:02.068Z,40.13
2018-06-22T10:55:32.271Z,40.34
2018-06-22T10:58:02.146Z,40.95
2018-06-22T11:00:31.691Z,41.47
2018-06-22T11:03:00.942Z,42.02
2018-06-22T11:05:30.205Z,42.87
2018-06-22T11:08:00.122Z,43.29
2018-06-22T11:10:29.771Z,41.72
2018-06-22T11:12:58.637Z,41.41
2018-06-22T11:15:27.739Z,40.81
2018-06-22T11:17:58.850Z,39.82
2018-06-22T11:20:27.881Z,41.51
2018-06-22T11:22:57.091Z,40.40
2018-06-22T11:25:26.563Z,41.55
2018-06-22T11:27:55.654Z,39.09
2018-06-22T11:30:24.948Z,39.43
2018-06-22T11:32:53.895Z,40.14
2018-06-22T11:35:24.270Z,41.15
2018-06-22T11:37:53.111Z,42.24
2018-06-22T11:40:22.568Z,42.28
2018-06-22T11:42:52.149Z,43.50
2018-06-22T11:45:21.302Z,43.75
2018-06-22T11:47:50.230Z,42.78
2018-06-22T11:50:19.736Z,42.10
2018-06-22T11:52:48.965Z,42.39
2018-06-22T11:55:18.619Z,42.62
2018-06-22T11:57:59.001Z,42.80
2018-06-22T12:00:28.723Z,43.37
2018-06-22T12:02:58.108Z,43.62
2018-06-22T12:05:27.097Z,43.00
2018-06-22T12:07:56.387Z,43.67
2018-06-22T12:10:25.975Z,43.16
2018-06-22T12:12:55.070Z,43.38
2018-06-22T12:15:31.684Z,43.70
2018-06-22T12:18:00.815Z,44.28
2018-06-22T12:20:29.761Z,44.83
2018-06-22T12:22:58.910Z,42.95
2018-06-22T12:25:28.937Z,42.09
2018-06-22T12:27:58.664Z,41.28
2018-06-22T12:30:27.654Z,41.33
2018-06-22T12:32:56.590Z,40.60
2018-06-22T12:35:25.556Z,40.62
2018-06-22T12:37:54.505Z,39.50
2018-06-22T12:40:23.655Z,40.80
2018-06-22T12:42:52.580Z,40.08
2018-06-22T12:45:21.651Z,41.50
2018-06-22T12:47:53.579Z,41.54
2018-06-22T12:50:23.774Z,42.02
2018-06-22T12:52:53.025Z,41.49
2018-06-22T12:55:22.367Z,40.92
2018-06-22T12:57:51.694Z,40.51
2018-06-22T13:00:22.715Z,40.08
2018-06-22T13:03:02.272Z,40.18
2018-06-22T13:05:31.976Z,44.88
2018-06-22T13:08:01.525Z,43.31
2018-06-22T13:10:30.717Z,41.57
2018-06-22T13:13:00.121Z,42.58
2018-06-22T13:15:29.106Z,42.86
2018-06-22T13:17:58.073Z,43.12
2018-06-22T13:20:27.651Z,45.22
2018-06-22T13:22:57.223Z,44.56
2018-06-22T13:25:26.648Z,41.67
2018-06-22T13:27:56.267Z,41.82
2018-06-22T13:30:25.727Z,39.25
2018-06-22T13:32:55.423Z,40.43
2018-06-22T13:35:25.356Z,37.46
2018-06-22T13:37:55.072Z,37.57
2018-06-22T13:40:24.377Z,37.36
2018-06-22T13:42:53.580Z,36.15
2018-06-22T13:45:23.085Z,36.17
2018-06-22T13:47:52.451Z,37.18
2018-06-22T13:50:27.658Z,39.01
2018-06-22T13:52:56.907Z,33.93
2018-06-22T13:55:26.022Z,32.27
2018-06-22T13:57:57.985Z,31.90
2018-06-22T14:00:27.341Z,32.16
2018-06-22T14:02:56.967Z,34.88
2018-06-22T14:05:31.484Z,37.09
2018-06-22T14:08:00.674Z,39.99
2018-06-22T14:10:29.923Z,36.90
2018-06-22T14:12:59.746Z,37.83
2018-06-22T14:15:29.225Z,36.43
2018-06-22T14:18:00.530Z,36.80
2018-06-22T14:20:30.113Z,36.47
2018-06-22T14:23:02.307Z,37.82
2018-06-22T14:25:31.561Z,37.68
2018-06-22T14:28:00.650Z,38.30
2018-06-22T14:30:31.690Z,37.29
2018-06-22T14:33:01.077Z,41.17
2018-06-22T14:35:30.024Z,39.72
2018-06-22T14:37:59.030Z,37.09
2018-06-22T14:40:28.304Z,36.37
2018-06-22T14:42:57.563Z,38.67
2018-06-22T14:45:26.969Z,34.45
2018-06-22T14:47:56.153Z,30.88
2018-06-22T14:50:25.016Z,31.52
2018-06-22T14:52:56.022Z,30.63
2018-06-22T14:55:30.618Z,27.25
2018-06-22T14:58:04.712Z,25.49
2018-06-22T15:00:40.245Z,25.70
2018-06-22T15:03:14.680Z,28.14
2018-06-22T15:05:50.299Z,26.20
2018-06-22T15:08:21.856Z,27.51
2018-06-22T15:10:51.284Z,21.49
2018-06-22T15:13:20.453Z,21.86
2018-06-22T15:15:49.734Z,20.63
2018-06-22T15:18:19.919Z,18.11
2018-06-22T15:20:49.148Z,21.89
2018-06-22T15:23:18.401Z,24.39
2018-06-22T15:25:48.631Z,24.76
2018-06-22T15:28:17.747Z,29.15
2018-06-22T15:30:47.259Z,31.29
2018-06-22T15:33:22.365Z,33.81
2018-06-22T15:35:56.490Z,28.61
2018-06-22T15:38:30.524Z,20.21
2018-06-22T15:41:04.893Z,20.81
2018-06-22T15:43:39.199Z,28.49
2018-06-22T15:46:13.296Z,33.92
2018-06-22T15:48:48.349Z,34.58
2018-06-22T15:51:23.244Z,34.71
2018-06-22T15:53:57.612Z,36.93
2018-06-22T15:56:27.053Z,37.53
2018-06-22T15:58:56.931Z,30.47
2018-06-22T16:01:26.712Z,23.58
2018-06-22T16:03:57.180Z,19.40
2018-06-22T16:06:27.110Z,20.47
2018-06-22T16:08:56.733Z,24.25
2018-06-22T16:11:29.232Z,26.41
2018-06-22T16:14:03.372Z,29.09
2018-06-22T16:16:37.595Z,31.23
2018-06-22T16:19:11.710Z,34.72
2018-06-22T16:21:45.941Z,33.85
2018-06-22T16:24:20.047Z,35.83
2018-06-22T16:26:53.966Z,37.25
2018-06-22T16:29:23.845Z,38.12
2018-06-22T16:31:53.599Z,40.73
2018-06-22T16:34:22.668Z,37.67
2018-06-22T16:36:53.404Z,39.57
2018-06-22T16:39:22.912Z,38.85
2018-06-22T16:41:56.031Z,41.02
2018-06-22T16:44:25.130Z,28.79
2018-06-22T16:46:54.647Z,24.68
2018-06-22T16:49:24.230Z,27.52
2018-06-22T16:51:53.761Z,31.17
2018-06-22T16:54:24.311Z,29.70
2018-06-22T16:56:54.894Z,28.40
2018-06-22T16:59:24.934Z,24.00
2018-06-22T17:01:54.427Z,26.01
2018-06-22T17:04:23.590Z,28.93
2018-06-22T17:06:57.928Z,32.61
2018-06-22T17:09:32.217Z,29.69
2018-06-22T17:12:06.181Z,23.64
2018-06-22T17:14:40.650Z,20.87
2018-06-22T17:17:14.775Z,24.26
2018-06-22T17:19:44.297Z,26.16
2018-06-22T17:22:15.771Z,28.39
2018-06-22T17:24:45.184Z,30.55
2018-06-22T17:27:14.737Z,33.49
2018-06-22T17:29:43.935Z,34.56
2018-06-22T17:32:17.754Z,35.08
2018-06-22T17:34:47.217Z,37.20
2018-06-22T17:37:18.315Z,38.27
2018-06-22T17:39:47.815Z,39.25
2018-06-22T17:42:16.928Z,37.52
2018-06-22T17:44:46.233Z,28.96
2018-06-22T17:47:15.571Z,29.30
2018-06-22T17:49:45.047Z,25.78
2018-06-22T17:52:14.687Z,20.76
2018-06-22T17:54:44.231Z,19.66
2018-06-22T17:57:14.632Z,21.16
2018-06-22T17:59:49.639Z,19.80
2018-06-22T18:02:25.381Z,21.45
2018-06-22T18:04:59.829Z,19.74
2018-06-22T18:07:36.686Z,21.29
2018-06-22T18:10:11.061Z,26.52
2018-06-22T18:12:45.218Z,31.03
2018-06-22T18:15:15.375Z,34.24
2018-06-22T18:17:44.656Z,35.42
2018-06-22T18:20:14.351Z,38.69
2018-06-22T18:22:43.683Z,38.79
2018-06-22T18:25:13.705Z,39.16
2018-06-22T18:27:42.637Z,40.83
2018-06-22T18:30:13.141Z,41.42
2018-06-22T18:32:42.293Z,41.89
2018-06-22T18:35:13.203Z,48.14
2018-06-22T18:37:42.951Z,42.88
2018-06-22T18:40:13.281Z,44.27
2018-06-22T18:42:43.116Z,43.55
2018-06-22T18:45:12.779Z,44.17
2018-06-22T18:47:42.653Z,45.23
2018-06-22T18:50:12.349Z,45.35
2018-06-22T18:52:46.787Z,47.70
2018-06-22T18:55:21.236Z,46.32
2018-06-22T18:57:55.345Z,46.85
2018-06-22T19:00:29.838Z,49.15
2018-06-22T19:03:04.031Z,48.53
2018-06-22T19:05:35.552Z,51.15
2018-06-22T19:08:04.799Z,50.32
2018-06-22T19:10:33.879Z,55.80
2018-06-22T19:13:02.880Z,51.02
2018-06-22T19:15:32.171Z,56.28
2018-06-22T19:18:01.520Z,53.08
2018-06-22T19:20:30.926Z,55.87
2018-06-22T19:23:00.190Z,57.71
2018-06-22T19:25:29.359Z,55.04
2018-06-22T19:27:58.864Z,56.79
2018-06-22T19:30:28.641Z,60.03
2018-06-22T19:32:58.471Z,60.77
2018-06-22T19:35:27.848Z,60.83
2018-06-22T19:37:57.016Z,64.65
2018-06-22T19:40:26.100Z,62.18
2018-06-22T19:42:55.679Z,65.41
2018-06-22T19:45:30.204Z,64.81
2018-06-22T19:48:04.406Z,71.82
2018-06-22T19:50:38.769Z,65.27
2018-06-22T19:53:13.439Z,66.49
2018-06-22T19:55:43.353Z,66.87
2018-06-22T19:58:12.813Z,66.42
2018-06-22T20:00:42.560Z,67.80
2018-06-22T20:03:11.989Z,69.05
2018-06-22T20:05:41.114Z,70.75
2018-06-22T20:08:10.895Z,71.88
2018-06-22T20:10:40.996Z,70.80
2018-06-22T20:13:15.251Z,73.30
2018-06-22T20:15:45.446Z,72.11
2018-06-22T20:18:21.362Z,72.21
2018-06-22T20:20:51.154Z,73.45
2018-06-22T20:23:22.672Z,73.18
2018-06-22T20:25:52.721Z,75.17
2018-06-22T20:28:26.237Z,76.68
2018-06-22T20:33:51.713Z,77.81
2018-06-22T20:36:25.905Z,79.01
2018-06-22T20:39:03.506Z,78.31
2018-06-22T20:41:37.206Z,78.37
2018-06-22T20:44:11.344Z,80.70
2018-06-22T20:46:45.173Z,79.99
2018-06-22T20:49:19.117Z,79.19
2018-06-22T20:51:48.190Z,80.13
2018-06-22T20:54:16.599Z,79.76
2018-06-22T20:56:45.321Z,80.05
2018-06-22T20:59:14.414Z,79.99
2018-06-22T21:01:42.922Z,80.22
2018-06-22T21:04:11.540Z,79.42
2018-06-22T21:06:40.187Z,80.11
2018-06-22T21:09:09.492Z,79.58
2018-06-22T21:11:38.261Z,81.29
2018-06-22T21:14:06.933Z,80.44
2018-06-22T21:16:36.564Z,79.48
2018-06-22T21:19:04.945Z,78.93
2018-06-22T21:22:37.415Z,77.54
2018-06-22T21:25:05.870Z,75.96
2018-06-22T21:27:39.695Z,78.40
2018-06-22T21:30:13.407Z,79.15
2018-06-22T21:32:47.134Z,82.47
2018-06-22T21:35:28.194Z,79.92
2018-06-22T21:38:01.739Z,83.11
2018-06-22T21:40:30.649Z,85.64
2018-06-22T21:42:59.007Z,84.06
2018-06-22T21:45:27.649Z,84.39
2018-06-22T21:47:56.249Z,84.70
2018-06-22T21:50:24.639Z,85.18
2018-06-22T21:52:53.006Z,87.66
2018-06-22T21:55:21.365Z,88.35
2018-06-22T21:57:49.756Z,87.77
2018-06-22T22:00:26.307Z,91.13
2018-06-22T22:02:55.670Z,87.12
2018-06-22T22:05:24.037Z,86.32
2018-06-22T22:07:52.399Z,82.16
2018-06-22T22:10:26.085Z,84.06
2018-06-22T22:12:54.486Z,83.52
2018-06-22T22:15:22.812Z,83.96
2018-06-22T22:17:51.256Z,84.06
2018-06-22T22:20:19.605Z,80.83
2018-06-22T22:22:47.941Z,85.37
2018-06-22T22:25:16.298Z,81.96
2018-06-22T22:27:44.817Z,81.55
2018-06-22T22:30:13.375Z,82.95
2018-06-22T22:32:41.887Z,82.47
2018-06-22T22:35:10.243Z,84.94
2018-06-22T22:37:38.818Z,86.00
2018-06-22T22:40:07.996Z,84.20
2018-06-22T22:42:36.452Z,84.11
2018-06-22T22:45:05.452Z,85.19
2018-06-22T22:47:34.232Z,86.19
2018-06-22T22:50:02.638Z,85.51
2018-06-22T22:52:31.015Z,88.49
2018-06-22T22:54:59.771Z,89.14
2018-06-22T22:57:28.255Z,89.41
2018-06-22T23:00:12.480Z,90.62
2018-06-22T23:02:42.698Z,90.56
2018-06-22T23:05:11.880Z,90.47
2018-06-22T23:07:40.337Z,91.81
2018-06-22T23:10:08.999Z,90.95
2018-06-22T23:12:37.341Z,95.12
2018-06-22T23:15:06.533Z,92.36
2018-06-22T23:17:35.258Z,92.35
2018-06-22T23:20:03.551Z,94.07
2018-06-22T23:23:39.667Z,92.98
2018-06-22T23:26:08.315Z,93.84
2018-06-22T23:28:36.726Z,93.50
2018-06-22T23:31:06.166Z,94.44
2018-06-22T23:33:34.939Z,95.68
2018-06-22T23:36:04.269Z,94.82
2018-06-22T23:38:33.265Z,94.83
2018-06-22T23:41:01.560Z,96.49
2018-06-22T23:43:29.991Z,98.23
2018-06-22T23:45:58.295Z,96.96
2018-06-22T23:48:26.778Z,95.89
2018-06-22T23:50:55.125Z,100.00
2018-06-22T23:53:23.546Z,94.42
2018-06-22T23:55:51.914Z,98.82
2018-06-22T23:58:20.205Z,96.52
